Time;durP1;ratioP1;P1;durP2;ratioP2;P2;SDS_P1;SDS_P2;PMS_P1;PMS_P2;Temp;Humidity;BMP_temperature;BMP_pressure;BME280_temperature;BME280_humidity;BME280_pressure;Samples;Min_cycle;Max_cycle;Signal;HPM_P1;HPM_P2
2021/03/25 00:00:37;;;;;;;105.93;45.25;;;;;;;;;;4971885;28;20129;-71
2021/03/25 00:03:04;;;;;;;95.88;42.85;;;;;;;;;;4980902;28;20045;-70
2021/03/25 00:05:31;;;;;;;105.63;45.13;;;;;;;;;;4976764;28;20121;-71
2021/03/25 00:07:57;;;;;;;108.13;43.70;;;;;;;;;;4972396;28;20497;-70
2021/03/25 00:10:28;;;;;;;107.60;45.05;;;;;;;;;;4976463;28;20744;-71
2021/03/25 00:12:54;;;;;;;107.90;43.25;;;;;;;;;;4980168;28;20019;-70
2021/03/25 00:15:20;;;;;;;97.97;41.45;;;;;;;;;;4980283;28;20105;-70
2021/03/25 00:17:46;;;;;;;100.60;42.17;;;;;;;;;;4973972;28;20058;-70
2021/03/25 00:20:13;;;;;;;108.63;44.35;;;;;;;;;;4974809;28;20025;-70
2021/03/25 00:22:40;;;;;;;97.00;42.25;;;;;;;;;;4979551;28;20062;-71
2021/03/25 00:25:06;;;;;;;106.18;44.88;;;;;;;;;;4988920;28;20025;-70
2021/03/25 00:27:32;;;;;;;99.07;42.55;;;;;;;;;;4977219;28;20065;-70
2021/03/25 00:29:58;;;;;;;95.35;43.22;;;;;;;;;;4989969;28;20037;-70
2021/03/25 00:32:24;;;;;;;100.00;43.17;;;;;;;;;;4987546;28;20019;-71
2021/03/25 00:34:50;;;;;;;97.40;44.05;;;;;;;;;;4986517;28;20150;-70
2021/03/25 00:37:16;;;;;;;106.32;43.33;;;;;;;;;;4975044;28;20019;-70
2021/03/25 00:39:42;;;;;;;100.07;46.15;;;;;;;;;;4990294;28;20121;-70
2021/03/25 00:42:09;;;;;;;100.47;45.03;;;;;;;;;;4987302;28;20069;-70
2021/03/25 00:44:35;;;;;;;114.85;44.72;;;;;;;;;;4980777;28;20106;-70
2021/03/25 00:47:01;;;;;;;100.10;45.10;;;;;;;;;;4971685;28;20330;-70
2021/03/25 00:49:27;;;;;;;95.28;42.72;;;;;;;;;;4985090;28;20041;-70
2021/03/25 00:51:53;;;;;;;103.88;45.72;;;;;;;;;;4989530;28;20073;-70
2021/03/25 00:54:19;;;;;;;91.15;41.47;;;;;;;;;;4991539;28;20045;-70
2021/03/25 00:56:45;;;;;;;96.80;44.70;;;;;;;;;;4985731;28;20310;-71
2021/03/25 00:59:11;;;;;;;96.00;45.75;;;;;;;;;;4978709;28;20022;-70
2021/03/25 01:01:37;;;;;;;99.32;43.92;;;;;;;;;;4983004;28;20026;-70
2021/03/25 01:04:03;;;;;;;92.65;44.08;;;;;;;;;;4990155;28;20031;-70
2021/03/25 01:06:29;;;;;;;95.18;42.30;;;;;;;;;;4987737;28;20042;-70
2021/03/25 01:08:55;;;;;;;93.82;42.25;;;;;;;;;;4980397;28;20038;-70
2021/03/25 01:11:23;;;;;;;93.97;43.30;;;;;;;;;;4983948;28;20025;-70
2021/03/25 01:14:10;;;;;;;101.32;42.63;;;;;;;;;;4986503;28;20019;-70
2021/03/25 01:16:38;;;;;;;100.60;42.63;;;;;;;;;;4988297;28;20116;-71
2021/03/25 01:19:06;;;;;;;94.75;39.80;;;;;;;;;;4985738;28;20022;-70
2021/03/25 01:21:32;;;;;;;94.35;41.38;;;;;;;;;;4990619;28;20476;-70
2021/03/25 01:23:58;;;;;;;92.68;41.70;;;;;;;;;;4987609;28;20489;-69
2021/03/25 01:26:24;;;;;;;91.50;39.95;;;;;;;;;;4982039;28;20516;-70
2021/03/25 01:28:50;;;;;;;96.18;39.85;;;;;;;;;;4980314;28;20022;-70
2021/03/25 01:31:16;;;;;;;96.32;41.25;;;;;;;;;;4986668;28;20492;-70
2021/03/25 01:33:43;;;;;;;90.40;40.33;;;;;;;;;;4984796;28;20543;-70
2021/03/25 01:36:09;;;;;;;89.13;42.13;;;;;;;;;;4976476;28;20139;-70
2021/03/25 01:38:35;;;;;;;92.88;44.85;;;;;;;;;;4980624;28;20066;-69
2021/03/25 01:41:02;;;;;;;98.68;44.95;;;;;;;;;;4979932;28;20112;-70
2021/03/25 01:43:31;;;;;;;89.15;42.70;;;;;;;;;;4976985;28;20054;-70
2021/03/25 01:45:59;;;;;;;101.68;45.90;;;;;;;;;;4985983;28;20093;-70
2021/03/25 01:48:27;;;;;;;102.25;42.13;;;;;;;;;;4983410;28;20038;-70
2021/03/25 01:50:54;;;;;;;96.95;44.10;;;;;;;;;;4980095;28;20030;-70
2021/03/25 01:53:20;;;;;;;101.72;46.75;;;;;;;;;;4990001;28;20056;-70
2021/03/25 01:55:54;;;;;;;98.20;49.10;;;;;;;;;;4980029;28;20110;-70
2021/03/25 01:58:36;;;;;;;101.30;42.47;;;;;;;;;;4979992;28;20412;-69
2021/03/25 02:01:02;;;;;;;;;;;;;;;;;;4977115;28;20074;-70
2021/03/25 02:03:47;;;;;;;98.25;43.80;;;;;;;;;;4979369;28;19910;-70
2021/03/25 02:06:29;;;;;;;106.65;45.50;;;;;;;;;;4976333;28;20118;-70
2021/03/25 02:09:01;;;;;;;80.90;36.05;;;;;;;;;;4979948;28;20027;-70
2021/03/25 02:11:34;;;;;;;100.70;42.97;;;;;;;;;;4984872;28;20031;-70
2021/03/25 02:14:05;;;;;;;97.22;43.67;;;;;;;;;;4986649;28;20026;-70
2021/03/25 02:16:37;;;;;;;105.63;45.75;;;;;;;;;;4985016;28;20030;-70
2021/03/25 02:19:26;;;;;;;104.53;44.80;;;;;;;;;;4983735;28;20027;-70
2021/03/25 02:21:55;;;;;;;126.93;45.45;;;;;;;;;;4969519;28;20057;-70
2021/03/25 02:24:29;;;;;;;105.93;44.50;;;;;;;;;;4985777;28;20077;-70
2021/03/25 02:26:55;;;;;;;109.53;45.08;;;;;;;;;;4981855;28;20062;-69
2021/03/25 02:29:39;;;;;;;101.95;43.72;;;;;;;;;;4985592;28;20023;-70
2021/03/25 02:32:08;;;;;;;105.53;46.00;;;;;;;;;;4979657;28;20035;-70
2021/03/25 02:34:36;;;;;;;98.80;44.78;;;;;;;;;;4987446;28;20026;-70
2021/03/25 02:37:19;;;;;;;98.97;43.63;;;;;;;;;;4986541;28;20114;-70
2021/03/25 02:39:53;;;;;;;109.32;45.55;;;;;;;;;;4983881;28;20031;-69
2021/03/25 02:42:21;;;;;;;106.82;44.60;;;;;;;;;;4989324;28;20089;-70
2021/03/25 02:44:53;;;;;;;93.90;45.45;;;;;;;;;;4989307;28;20097;-70
2021/03/25 02:47:20;;;;;;;111.68;45.00;;;;;;;;;;4984162;28;20559;-70
2021/03/25 02:49:49;;;;;;;103.88;46.17;;;;;;;;;;4979238;28;20029;-70
2021/03/25 02:52:15;;;;;;;99.88;45.88;;;;;;;;;;4979539;28;20036;-70
2021/03/25 02:54:42;;;;;;;103.35;47.58;;;;;;;;;;4986919;28;20050;-70
2021/03/25 02:57:11;;;;;;;106.28;46.25;;;;;;;;;;4984953;28;20029;-69
2021/03/25 02:59:39;;;;;;;96.30;44.83;;;;;;;;;;4984612;28;20516;-70
2021/03/25 03:02:12;;;;;;;105.75;49.22;;;;;;;;;;4984808;28;20110;-70
2021/03/25 03:04:39;;;;;;;102.22;47.15;;;;;;;;;;4987301;28;20037;-69
2021/03/25 03:07:10;;;;;;;98.20;45.42;;;;;;;;;;4978496;28;20299;-70
2021/03/25 03:09:43;;;;;;;105.80;50.40;;;;;;;;;;4988261;28;20126;-70
2021/03/25 03:12:12;;;;;;;101.47;50.60;;;;;;;;;;4985125;28;20038;-70
2021/03/25 03:14:43;;;;;;;106.15;47.92;;;;;;;;;;4986444;28;20077;-70
2021/03/25 03:17:12;;;;;;;102.32;46.70;;;;;;;;;;4984288;28;20042;-70
2021/03/25 03:20:01;;;;;;;112.72;49.10;;;;;;;;;;4985716;28;20447;-69
2021/03/25 03:22:27;;;;;;;115.88;50.75;;;;;;;;;;4981887;28;20041;-70
2021/03/25 03:24:53;;;;;;;101.72;47.10;;;;;;;;;;4987568;28;20026;-70
2021/03/25 03:27:21;;;;;;;113.85;50.67;;;;;;;;;;4976742;28;20066;-70
2021/03/25 03:29:48;;;;;;;114.10;49.58;;;;;;;;;;4973074;28;20030;-70
2021/03/25 03:32:14;;;;;;;108.93;47.90;;;;;;;;;;4971974;28;20034;-70
2021/03/25 03:34:42;;;;;;;107.80;48.33;;;;;;;;;;4987540;28;20027;-70
2021/03/25 03:37:18;;;;;;;110.38;52.08;;;;;;;;;;4971502;28;20023;-69
2021/03/25 03:39:44;;;;;;;110.10;46.45;;;;;;;;;;4987141;28;20081;-70
2021/03/25 03:42:15;;;;;;;119.15;48.78;;;;;;;;;;4986661;28;20033;-70
2021/03/25 03:44:44;;;;;;;102.22;46.63;;;;;;;;;;4992009;28;20042;-69
2021/03/25 03:47:10;;;;;;;104.55;45.42;;;;;;;;;;4987936;28;20688;-70
2021/03/25 03:50:09;;;;;;;105.05;45.42;;;;;;;;;;4978721;28;20030;-70
2021/03/25 03:52:37;;;;;;;99.00;46.35;;;;;;;;;;4952289;28;20034;-70
2021/03/25 03:55:05;;;;;;;100.28;46.35;;;;;;;;;;4988326;28;20055;-70
2021/03/25 03:57:37;;;;;;;112.68;47.85;;;;;;;;;;4984088;28;20022;-70
2021/03/25 04:00:06;;;;;;;102.72;44.28;;;;;;;;;;4987905;28;20026;-70
2021/03/25 04:02:37;;;;;;;112.30;46.38;;;;;;;;;;4990585;28;20076;-70
2021/03/25 04:05:06;;;;;;;112.22;47.05;;;;;;;;;;4990091;28;20030;-69
2021/03/25 04:07:34;;;;;;;108.10;47.33;;;;;;;;;;4977459;28;20093;-70
2021/03/25 04:10:06;;;;;;;110.75;45.70;;;;;;;;;;4990497;28;20067;-70
2021/03/25 04:12:31;;;;;;;;;;;;;;;;;;4991188;28;20026;-70
2021/03/25 04:15:12;;;;;;;107.00;44.00;;;;;;;;;;4983804;28;19924;-70
2021/03/25 04:17:39;;;;;;;109.00;46.50;;;;;;;;;;4988611;28;20034;-70
2021/03/25 04:20:08;;;;;;;108.07;48.15;;;;;;;;;;4988724;28;20031;-70
2021/03/25 04:22:43;;;;;;;104.97;47.58;;;;;;;;;;4979857;28;20035;-70
2021/03/25 04:25:18;;;;;;;108.50;45.80;;;;;;;;;;4990726;28;20026;-70
2021/03/25 04:27:51;;;;;;;102.85;46.50;;;;;;;;;;4982644;28;20097;-69
2021/03/25 04:30:21;;;;;;;103.50;44.40;;;;;;;;;;4989835;28;20041;-69
2021/03/25 04:32:49;;;;;;;94.30;44.05;;;;;;;;;;4990775;28;20085;-70
2021/03/25 04:35:15;;;;;;;96.47;47.28;;;;;;;;;;4990465;28;20030;-70
2021/03/25 04:37:42;;;;;;;103.40;45.35;;;;;;;;;;4984201;28;20104;-69
2021/03/25 04:40:10;;;;;;;97.38;43.35;;;;;;;;;;4986135;28;20023;-70
2021/03/25 04:42:39;;;;;;;100.57;44.60;;;;;;;;;;4983907;28;20050;-70
2021/03/25 04:45:15;;;;;;;91.63;43.42;;;;;;;;;;4989979;28;20034;-70
2021/03/25 04:47:44;;;;;;;87.95;41.47;;;;;;;;;;4987816;28;20036;-70
2021/03/25 04:50:28;;;;;;;91.75;42.92;;;;;;;;;;4986577;28;20026;-70
2021/03/25 04:53:20;;;;;;;82.28;41.90;;;;;;;;;;4980871;28;20045;-69
2021/03/25 04:55:46;;;;;;;84.45;39.35;;;;;;;;;;4977647;28;20059;-70
2021/03/25 04:58:16;;;;;;;90.38;41.63;;;;;;;;;;4985837;28;20058;-70
2021/03/25 05:00:43;;;;;;;96.80;42.78;;;;;;;;;;4979497;28;20592;-69
2021/03/25 05:03:11;;;;;;;84.50;40.50;;;;;;;;;;4984384;28;22398;-70
2021/03/25 05:05:37;;;;;;;85.57;39.50;;;;;;;;;;4985292;28;20046;-70
2021/03/25 05:08:03;;;;;;;83.70;40.78;;;;;;;;;;4982507;28;20053;-70
2021/03/25 05:10:42;;;;;;;82.65;39.88;;;;;;;;;;4988486;28;20026;-70
2021/03/25 05:13:25;;;;;;;80.75;38.80;;;;;;;;;;4982598;28;20026;-71
2021/03/25 05:16:07;;;;;;;84.00;37.90;;;;;;;;;;4982723;28;20027;-70
2021/03/25 05:18:34;;;;;;;80.90;40.47;;;;;;;;;;4979108;28;20038;-70
2021/03/25 05:21:11;;;;;;;85.60;38.65;;;;;;;;;;4986730;28;20037;-70
2021/03/25 05:23:56;;;;;;;83.20;40.05;;;;;;;;;;4978385;28;20034;-70
2021/03/25 05:26:27;;;;;;;78.53;37.83;;;;;;;;;;4979076;28;20027;-70
2021/03/25 05:28:54;;;;;;;82.97;36.53;;;;;;;;;;4976763;28;20034;-70
2021/03/25 05:31:21;;;;;;;73.10;33.63;;;;;;;;;;4989911;28;20488;-70
2021/03/25 05:33:54;;;;;;;62.63;31.23;;;;;;;;;;4988852;28;20089;-70
2021/03/25 05:36:20;;;;;;;70.28;32.17;;;;;;;;;;4985810;28;20038;-70
2021/03/25 05:38:47;;;;;;;73.72;33.80;;;;;;;;;;4975037;28;20432;-70
2021/03/25 05:41:13;;;;;;;74.05;34.78;;;;;;;;;;4973372;28;20092;-71
2021/03/25 05:43:53;;;;;;;78.15;33.47;;;;;;;;;;4981213;28;20562;-70
2021/03/25 05:46:39;;;;;;;73.82;31.58;;;;;;;;;;4985696;28;20018;-71
2021/03/25 05:49:05;;;;;;;72.90;33.72;;;;;;;;;;4976861;28;20046;-70
2021/03/25 05:51:50;;;;;;;75.45;35.72;;;;;;;;;;4986354;28;20026;-70
2021/03/25 05:54:23;;;;;;;65.82;32.20;;;;;;;;;;4974923;28;20043;-70
2021/03/25 05:57:07;;;;;;;68.95;31.23;;;;;;;;;;4980843;28;20031;-71
2021/03/25 05:59:41;;;;;;;70.45;33.72;;;;;;;;;;4979173;28;20157;-70
2021/03/25 06:02:07;;;;;;;73.55;33.45;;;;;;;;;;4989413;28;20080;-70
2021/03/25 06:04:34;;;;;;;85.43;38.00;;;;;;;;;;4972891;28;20046;-70
2021/03/25 06:07:16;;;;;;;96.03;39.03;;;;;;;;;;4982097;28;20030;-70
2021/03/25 06:10:01;;;;;;;83.75;36.63;;;;;;;;;;4982812;28;20041;-70
2021/03/25 06:12:35;;;;;;;85.13;40.53;;;;;;;;;;4984152;28;20030;-71
2021/03/25 06:15:02;;;;;;;82.50;36.40;;;;;;;;;;4980906;28;20053;-70
2021/03/25 06:17:40;;;;;;;89.05;41.75;;;;;;;;;;4986351;28;20080;-70
2021/03/25 06:20:15;;;;;;;87.57;38.38;;;;;;;;;;4990933;28;20042;-70
2021/03/25 06:22:59;;;;;;;96.88;41.13;;;;;;;;;;4986854;28;20045;-70
2021/03/25 06:25:25;;;;;;;97.13;40.42;;;;;;;;;;4990156;28;20034;-70
2021/03/25 06:27:58;;;;;;;87.35;38.97;;;;;;;;;;4986832;28;20034;-70
2021/03/25 06:30:30;;;;;;;91.93;42.70;;;;;;;;;;4986696;28;20023;-70
2021/03/25 06:32:56;;;;;;;95.45;45.92;;;;;;;;;;4976848;28;20033;-70
2021/03/25 06:35:48;;;;;;;103.13;47.03;;;;;;;;;;4987768;28;20018;-70
2021/03/25 06:38:14;;;;;;;;;;;;;;;;;;4981844;28;20038;-71
2021/03/25 06:40:42;;;;;;;95.22;42.28;;;;;;;;;;4980017;28;19917;-71
2021/03/25 06:43:25;;;;;;;101.03;42.38;;;;;;;;;;4976358;28;20030;-72
2021/03/25 06:45:58;;;;;;;86.68;37.47;;;;;;;;;;4982462;28;20037;-71
2021/03/25 06:48:30;;;;;;;90.65;41.03;;;;;;;;;;4982116;28;20454;-72
2021/03/25 06:50:56;;;;;;;97.72;41.75;;;;;;;;;;4979636;28;20019;-70
2021/03/25 06:53:25;;;;;;;93.25;41.72;;;;;;;;;;4985565;28;20042;-71
2021/03/25 06:55:55;;;;;;;91.07;41.92;;;;;;;;;;4989632;28;20015;-70
2021/03/25 06:58:25;;;;;;;96.88;41.78;;;;;;;;;;4981252;28;20034;-70
2021/03/25 07:00:54;;;;;;;98.28;42.30;;;;;;;;;;4987698;28;20038;-71
2021/03/25 07:03:20;;;;;;;93.13;41.40;;;;;;;;;;4985445;28;20034;-70
2021/03/25 07:05:47;;;;;;;88.35;42.45;;;;;;;;;;4977160;28;20029;-70
2021/03/25 07:08:24;;;;;;;95.40;41.70;;;;;;;;;;4983180;28;20045;-70
2021/03/25 07:10:55;;;;;;;94.00;41.55;;;;;;;;;;4985334;28;20090;-69
2021/03/25 07:13:29;;;;;;;92.78;42.38;;;;;;;;;;4976121;28;20496;-70
2021/03/25 07:15:56;;;;;;;96.78;40.20;;;;;;;;;;4978904;28;20035;-69
2021/03/25 07:18:45;;;;;;;87.97;41.47;;;;;;;;;;4978286;28;20030;-69
2021/03/25 07:21:22;;;;;;;93.55;33.45;;;;;;;;;;4975453;28;20038;-71
2021/03/25 07:23:48;;;;;;;84.30;36.30;;;;;;;;;;4986484;28;20029;-70
2021/03/25 07:26:22;;;;;;;90.40;35.88;;;;;;;;;;4987040;28;20022;-70
2021/03/25 07:29:02;;;;;;;98.75;42.65;;;;;;;;;;4981055;28;20038;-70
2021/03/25 07:31:29;;;;;;;97.18;44.03;;;;;;;;;;4989608;28;20456;-70
2021/03/25 07:33:55;;;;;;;96.50;44.53;;;;;;;;;;4991025;28;20519;-70
2021/03/25 07:36:21;;;;;;;89.78;41.08;;;;;;;;;;4982511;28;20046;-69
2021/03/25 07:38:47;;;;;;;97.43;45.08;;;;;;;;;;4983583;28;20065;-69
2021/03/25 07:41:17;;;;;;;88.30;41.92;;;;;;;;;;4984625;28;20027;-70
2021/03/25 07:44:04;;;;;;;95.35;44.13;;;;;;;;;;4986752;28;20053;-69
2021/03/25 07:46:32;;;;;;;98.70;41.55;;;;;;;;;;4983800;28;20189;-69
2021/03/25 07:48:58;;;;;;;94.13;38.60;;;;;;;;;;4979437;28;20065;-70
2021/03/25 07:51:24;;;;;;;98.43;42.40;;;;;;;;;;4989043;28;20033;-69
2021/03/25 07:54:08;;;;;;;94.78;43.58;;;;;;;;;;4985065;28;20034;-69
2021/03/25 07:56:34;;;;;;;94.95;40.45;;;;;;;;;;4985215;28;20038;-69
2021/03/25 07:59:00;;;;;;;91.57;41.03;;;;;;;;;;4987766;28;20025;-70
2021/03/25 08:01:26;;;;;;;93.47;39.47;;;;;;;;;;4989173;28;20081;-70
2021/03/25 08:03:53;;;;;;;93.55;43.30;;;;;;;;;;4989214;28;20104;-69
2021/03/25 08:06:22;;;;;;;100.85;44.03;;;;;;;;;;4989139;28;20035;-69
2021/03/25 08:09:14;;;;;;;97.70;44.22;;;;;;;;;;4981479;28;20030;-69
2021/03/25 08:11:53;;;;;;;95.00;40.60;;;;;;;;;;4977705;28;20038;-70
2021/03/25 08:14:22;;;;;;;99.05;40.97;;;;;;;;;;4987177;28;20104;-69
2021/03/25 08:16:50;;;;;;;97.47;42.92;;;;;;;;;;4988305;28;20555;-69
2021/03/25 08:19:36;;;;;;;103.15;45.63;;;;;;;;;;4986546;28;20117;-70
2021/03/25 08:22:02;;;;;;;102.75;43.40;;;;;;;;;;4980073;28;20026;-69
2021/03/25 08:24:40;;;;;;;93.85;39.03;;;;;;;;;;4982139;28;20039;-70
2021/03/25 08:27:13;;;;;;;90.97;37.92;;;;;;;;;;4983920;28;20022;-69
2021/03/25 08:29:39;;;;;;;100.45;41.80;;;;;;;;;;4979788;28;20035;-69
2021/03/25 08:32:05;;;;;;;96.82;41.22;;;;;;;;;;4982850;28;20060;-69
2021/03/25 08:34:37;;;;;;;95.55;39.35;;;;;;;;;;4984693;28;20038;-70
2021/03/25 08:37:11;;;;;;;98.95;39.30;;;;;;;;;;4984949;28;20018;-69
2021/03/25 08:39:41;;;;;;;88.07;38.58;;;;;;;;;;4984343;28;20496;-70
2021/03/25 08:42:18;;;;;;;88.50;35.42;;;;;;;;;;4991552;28;20026;-72
2021/03/25 08:44:47;;;;;;;103.43;38.92;;;;;;;;;;4989558;28;20050;-71
2021/03/25 08:47:19;;;;;;;88.05;34.97;;;;;;;;;;4977902;28;20034;-72
2021/03/25 08:49:51;;;;;;;89.03;40.83;;;;;;;;;;4974577;28;20034;-70
2021/03/25 08:52:18;;;;;;;88.40;36.13;;;;;;;;;;4984732;28;20027;-70
2021/03/25 08:54:47;;;;;;;77.30;30.38;;;;;;;;;;4988061;28;20039;-70
2021/03/25 08:57:27;;;;;;;81.78;32.78;;;;;;;;;;4987930;28;20023;-69
2021/03/25 08:59:56;;;;;;;80.60;35.45;;;;;;;;;;4989138;28;20027;-69
2021/03/25 09:02:37;;;;;;;84.72;36.50;;;;;;;;;;4983778;28;20504;-69
2021/03/25 09:05:08;;;;;;;79.68;32.63;;;;;;;;;;4983089;28;20476;-70
2021/03/25 09:07:36;;;;;;;73.40;33.33;;;;;;;;;;4986090;28;20034;-70
2021/03/25 09:10:10;;;;;;;69.18;26.20;;;;;;;;;;4986358;28;20085;-74
2021/03/25 09:12:36;;;;;;;71.85;30.33;;;;;;;;;;4987512;28;20023;-71
2021/03/25 09:15:05;;;;;;;66.38;30.13;;;;;;;;;;4983672;28;20077;-71
2021/03/25 09:17:37;;;;;;;61.28;26.00;;;;;;;;;;4990365;28;20065;-72
2021/03/25 09:20:03;;;;;;;;;;;;;;;;;;4979082;28;20659;-70
2021/03/25 09:22:34;;;;;;;63.30;29.17;;;;;;;;;;4979618;28;19941;-71
2021/03/25 09:25:19;;;;;;;54.60;23.15;;;;;;;;;;4985744;28;20524;-71
2021/03/25 09:27:57;;;;;;;59.28;24.55;;;;;;;;;;4981190;28;20117;-70
2021/03/25 09:30:27;;;;;;;42.42;20.80;;;;;;;;;;4983147;28;20070;-72
2021/03/25 09:32:53;;;;;;;39.58;20.67;;;;;;;;;;4985537;28;20023;-69
2021/03/25 09:35:36;;;;;;;45.38;19.50;;;;;;;;;;4983614;28;20026;-70
2021/03/25 09:38:03;;;;;;;44.85;17.88;;;;;;;;;;4986643;28;20401;-71
2021/03/25 09:40:42;;;;;;;43.67;18.10;;;;;;;;;;4985503;28;20042;-71
2021/03/25 09:43:26;;;;;;;42.40;17.13;;;;;;;;;;4989429;28;20031;-73
2021/03/25 09:45:54;;;;;;;36.05;16.17;;;;;;;;;;4983315;28;20031;-70
2021/03/25 09:48:22;;;;;;;32.88;16.08;;;;;;;;;;4985765;28;20034;-72
2021/03/25 09:51:03;;;;;;;31.00;16.38;;;;;;;;;;4978409;28;20091;-70
2021/03/25 09:53:29;;;;;;;30.27;15.05;;;;;;;;;;4989245;28;20038;-71
2021/03/25 09:56:19;;;;;;;32.60;14.00;;;;;;;;;;4983160;28;20026;-70
2021/03/25 09:58:47;;;;;;;32.22;14.55;;;;;;;;;;4994640;28;20074;-71
2021/03/25 10:01:31;;;;;;;29.98;16.48;;;;;;;;;;4980794;28;20033;-72
2021/03/25 10:03:58;;;;;;;30.55;12.60;;;;;;;;;;4981878;28;20022;-71
2021/03/25 10:06:43;;;;;;;23.88;11.70;;;;;;;;;;4984229;28;20102;-72
2021/03/25 10:09:09;;;;;;;31.20;12.43;;;;;;;;;;4978830;28;20117;-73
2021/03/25 10:11:50;;;;;;;30.10;11.80;;;;;;;;;;4982535;28;20029;-71
2021/03/25 10:14:35;;;;;;;27.02;13.75;;;;;;;;;;4989238;28;20588;-73
2021/03/25 10:17:01;;;;;;;24.48;10.98;;;;;;;;;;4983578;28;20027;-72
2021/03/25 10:19:43;;;;;;;27.17;10.85;;;;;;;;;;4977817;28;20030;-70
2021/03/25 10:22:18;;;;;;;24.35;10.57;;;;;;;;;;4975342;28;20085;-70
2021/03/25 10:24:51;;;;;;;20.42;8.55;;;;;;;;;;4979745;28;20026;-75
2021/03/25 10:27:20;;;;;;;31.27;11.68;;;;;;;;;;4980989;28;20285;-71
2021/03/25 10:29:47;;;;;;;28.17;11.60;;;;;;;;;;4979286;28;20034;-70
2021/03/25 10:32:27;;;;;;;21.33;8.32;;;;;;;;;;4981224;28;20089;-72
2021/03/25 10:34:56;;;;;;;28.25;10.55;;;;;;;;;;4972027;28;20031;-71
2021/03/25 10:37:32;;;;;;;27.55;10.13;;;;;;;;;;4985819;28;20400;-69
2021/03/25 10:39:59;;;;;;;30.70;8.55;;;;;;;;;;4974096;28;20386;-71
2021/03/25 10:42:26;;;;;;;19.25;7.72;;;;;;;;;;4979854;28;20500;-72
2021/03/25 10:44:52;;;;;;;20.67;7.53;;;;;;;;;;4979820;28;20100;-71
2021/03/25 10:47:20;;;;;;;26.85;8.25;;;;;;;;;;4983099;28;20039;-70
2021/03/25 10:49:51;;;;;;;23.98;8.85;;;;;;;;;;4987443;28;20052;-73
2021/03/25 10:52:37;;;;;;;20.23;8.90;;;;;;;;;;4989334;28;20030;-70
2021/03/25 10:55:06;;;;;;;24.90;9.25;;;;;;;;;;4984760;28;20046;-69
2021/03/25 10:57:33;;;;;;;23.05;7.13;;;;;;;;;;4992310;28;20034;-71
2021/03/25 11:00:01;;;;;;;24.58;8.50;;;;;;;;;;4979599;28;20030;-69
2021/03/25 11:02:28;;;;;;;16.45;7.45;;;;;;;;;;4986279;28;20053;-70
2021/03/25 11:05:08;;;;;;;20.70;8.95;;;;;;;;;;4982589;28;20026;-70
2021/03/25 11:07:39;;;;;;;21.25;6.72;;;;;;;;;;4981613;28;20408;-70
2021/03/25 11:10:05;;;;;;;20.70;7.45;;;;;;;;;;4985211;28;20046;-73
2021/03/25 11:12:33;;;;;;;22.17;7.93;;;;;;;;;;4983366;28;20041;-70
2021/03/25 11:15:00;;;;;;;15.95;5.82;;;;;;;;;;4981954;28;20034;-70
2021/03/25 11:17:34;;;;;;;9.73;4.38;;;;;;;;;;4977280;28;20030;-71
2021/03/25 11:20:03;;;;;;;15.00;6.35;;;;;;;;;;4981814;28;20026;-73
2021/03/25 11:22:32;;;;;;;15.95;5.63;;;;;;;;;;4982541;28;20026;-74
2021/03/25 11:25:00;;;;;;;14.68;5.40;;;;;;;;;;4978605;28;20655;-73
2021/03/25 11:27:27;;;;;;;14.77;5.25;;;;;;;;;;4975362;28;20030;-71
2021/03/25 11:30:07;;;;;;;18.48;5.43;;;;;;;;;;4982222;28;20085;-72
2021/03/25 11:32:44;;;;;;;12.10;4.57;;;;;;;;;;4985890;28;20031;-71
2021/03/25 11:35:22;;;;;;;13.65;4.25;;;;;;;;;;4984621;28;20041;-70
2021/03/25 11:37:48;;;;;;;16.17;4.53;;;;;;;;;;4985088;28;20033;-70
2021/03/25 11:40:16;;;;;;;13.85;6.18;;;;;;;;;;4977028;28;20030;-70
2021/03/25 11:42:47;;;;;;;16.63;5.97;;;;;;;;;;4977897;28;20038;-72
2021/03/25 11:45:32;;;;;;;21.95;8.10;;;;;;;;;;4987372;28;20026;-71
2021/03/25 11:47:58;;;;;;;13.55;5.35;;;;;;;;;;4976698;28;20619;-72
2021/03/25 11:50:27;;;;;;;13.32;5.07;;;;;;;;;;4982062;28;20650;-72
2021/03/25 11:52:57;;;;;;;18.48;5.57;;;;;;;;;;4985431;28;20031;-71
2021/03/25 11:55:44;;;;;;;17.08;4.60;;;;;;;;;;4984936;28;20112;-70
2021/03/25 11:58:20;;;;;;;14.73;5.15;;;;;;;;;;4980724;28;20041;-72
2021/03/25 12:01:04;;;;;;;14.10;4.40;;;;;;;;;;4980754;28;20784;-71
2021/03/25 12:03:33;;;;;;;12.35;3.78;;;;;;;;;;4983951;28;20035;-73
2021/03/25 12:05:59;;;;;;;10.07;3.22;;;;;;;;;;4982041;28;20023;-73
2021/03/25 12:08:26;;;;;;;23.92;5.35;;;;;;;;;;4975391;28;20186;-72
2021/03/25 12:11:06;;;;;;;14.60;6.30;;;;;;;;;;4974502;28;20058;-71
2021/03/25 12:13:32;;;;;;;23.60;8.95;;;;;;;;;;4974978;28;20050;-71
2021/03/25 12:15:59;;;;;;;26.38;9.20;;;;;;;;;;4979329;28;20096;-72
2021/03/25 12:18:27;;;;;;;22.25;9.55;;;;;;;;;;4977001;28;20625;-72
2021/03/25 12:20:55;;;;;;;26.98;10.20;;;;;;;;;;4976525;28;20041;-72
2021/03/25 12:23:32;;;;;;;27.10;11.45;;;;;;;;;;4977263;28;20106;-71
2021/03/25 12:26:00;;;;;;;24.13;11.00;;;;;;;;;;4975913;28;20026;-73
2021/03/25 12:28:26;;;;;;;26.35;11.00;;;;;;;;;;4973330;28;20026;-71
2021/03/25 12:30:52;;;;;;;23.52;10.35;;;;;;;;;;4977139;28;20038;-72
2021/03/25 12:33:23;;;;;;;26.55;10.27;;;;;;;;;;4974998;28;20113;-72
2021/03/25 12:35:49;;;;;;;27.30;10.68;;;;;;;;;;4975125;28;20792;-71
2021/03/25 12:38:15;;;;;;;19.50;6.05;;;;;;;;;;4974443;28;20024;-71
2021/03/25 12:40:41;;;;;;;16.88;8.02;;;;;;;;;;4976373;28;20026;-74
2021/03/25 12:43:10;;;;;;;15.05;6.88;;;;;;;;;;4978779;28;20030;-73
2021/03/25 12:45:40;;;;;;;22.70;6.75;;;;;;;;;;4976369;28;20027;-71
2021/03/25 12:48:07;;;;;;;15.55;7.05;;;;;;;;;;4975408;28;20101;-70
2021/03/25 12:50:33;;;;;;;13.45;4.53;;;;;;;;;;4972336;28;20037;-73
2021/03/25 12:52:59;;;;;;;10.85;4.05;;;;;;;;;;4976360;28;20504;-69
2021/03/25 12:55:26;;;;;;;11.45;3.78;;;;;;;;;;4978963;28;20026;-71
2021/03/25 12:57:53;;;;;;;10.75;3.05;;;;;;;;;;4986681;28;20026;-71
2021/03/25 13:00:22;;;;;;;7.03;2.28;;;;;;;;;;4979232;28;20030;-72
2021/03/25 13:02:48;;;;;;;5.18;1.02;;;;;;;;;;4983166;28;20447;-73
2021/03/25 13:05:14;;;;;;;10.88;1.88;;;;;;;;;;4980561;28;20556;-70
2021/03/25 13:07:40;;;;;;;7.53;1.25;;;;;;;;;;4984493;28;20030;-71
2021/03/25 13:10:06;;;;;;;7.05;1.20;;;;;;;;;;4979480;28;20041;-73
2021/03/25 13:12:32;;;;;;;6.55;1.40;;;;;;;;;;4976244;28;20031;-72
2021/03/25 13:14:58;;;;;;;8.80;2.17;;;;;;;;;;4986847;28;20053;-72
2021/03/25 13:17:24;;;;;;;4.57;1.45;;;;;;;;;;4975834;28;20473;-70
2021/03/25 13:19:50;;;;;;;10.07;2.00;;;;;;;;;;4977337;28;20331;-74
2021/03/25 13:22:16;;;;;;;10.73;1.73;;;;;;;;;;4981219;28;20033;-70
2021/03/25 13:24:42;;;;;;;6.53;1.63;;;;;;;;;;4987311;28;20502;-70
2021/03/25 13:27:09;;;;;;;3.58;0.68;;;;;;;;;;4978588;28;20053;-72
2021/03/25 13:29:35;;;;;;;6.30;0.93;;;;;;;;;;4979190;28;20030;-70
2021/03/25 13:32:01;;;;;;;4.85;1.05;;;;;;;;;;4973921;28;20031;-71
2021/03/25 13:34:27;;;;;;;6.68;1.02;;;;;;;;;;4975901;28;20031;-71
2021/03/25 13:36:55;;;;;;;7.38;1.52;;;;;;;;;;4982731;28;20552;-70
2021/03/25 13:39:21;;;;;;;7.25;1.60;;;;;;;;;;4984415;28;20027;-73
2021/03/25 13:41:47;;;;;;;4.10;0.95;;;;;;;;;;4983609;28;20507;-70
2021/03/25 13:44:13;;;;;;;6.55;1.20;;;;;;;;;;4984687;28;20031;-71
2021/03/25 13:46:39;;;;;;;6.03;0.77;;;;;;;;;;4980542;28;20169;-65
2021/03/25 13:49:05;;;;;;;2.78;0.52;;;;;;;;;;4983400;28;20526;-70
2021/03/25 13:51:31;;;;;;;8.20;1.10;;;;;;;;;;4983938;28;20115;-72
2021/03/25 13:53:57;;;;;;;6.45;0.93;;;;;;;;;;4974951;28;20031;-72
2021/03/25 13:56:23;;;;;;;11.23;1.35;;;;;;;;;;4981233;28;20397;-71
2021/03/25 13:58:49;;;;;;;7.78;1.17;;;;;;;;;;4982928;28;20035;-70
2021/03/25 14:01:15;;;;;;;5.95;1.10;;;;;;;;;;4981283;28;20025;-71
2021/03/25 14:03:41;;;;;;;5.63;1.40;;;;;;;;;;4982274;28;20042;-72
2021/03/25 14:06:07;;;;;;;2.92;0.70;;;;;;;;;;4984704;28;20124;-74
2021/03/25 14:08:33;;;;;;;5.30;0.90;;;;;;;;;;4984266;28;20034;-72
2021/03/25 14:10:59;;;;;;;5.20;0.98;;;;;;;;;;4982030;28;20041;-69
2021/03/25 14:13:25;;;;;;;8.15;1.80;;;;;;;;;;4980346;28;20569;-71
2021/03/25 14:15:52;;;;;;;9.48;1.50;;;;;;;;;;4981736;28;20026;-70
2021/03/25 14:18:20;;;;;;;3.95;0.70;;;;;;;;;;4984128;28;20022;-70
2021/03/25 14:20:46;;;;;;;6.13;1.08;;;;;;;;;;4980561;28;20442;-71
2021/03/25 14:23:14;;;;;;;5.63;0.45;;;;;;;;;;4980962;28;20390;-69
2021/03/25 14:25:42;;;;;;;4.63;0.90;;;;;;;;;;4981882;28;20034;-71
2021/03/25 14:28:10;;;;;;;1.73;0.63;;;;;;;;;;4978965;28;20126;-71
2021/03/25 14:30:36;;;;;;;4.40;0.57;;;;;;;;;;4979030;28;20519;-72
2021/03/25 14:33:02;;;;;;;6.70;0.93;;;;;;;;;;4986622;28;20026;-70
2021/03/25 14:35:30;;;;;;;5.43;0.75;;;;;;;;;;4981598;28;20049;-69
2021/03/25 14:37:56;;;;;;;7.65;2.30;;;;;;;;;;4984009;28;20022;-70
2021/03/25 14:40:23;;;;;;;6.03;0.77;;;;;;;;;;4988251;28;20030;-70